Tingri, China
Current Conditions -  °F | °C
As of 8:50 PM on Friday 19 Dec 2014 (Local Time) from VNKT Reporting Station
Scattered Clouds Scattered Clouds  
Wind Chill: 57°   Ceiling: Unl
Heat Index: 57°   Visibility: 5mi
Dew Point: 36°   Wind: 0mph
Humidity: 44%   Direction: NA
Pressure: 30.21"   Gusts: NA
Location:  28.63°N, 87.08°E
Report Text: VNKT 191250Z 00000KT 8000 FEW020 SCT250 14/02 Q1023 NOSIG
Loading
Personal Weather Stations






























Interactive Weather Map New forecast layout! Learn more

10-Day Weather Forecast

Advertisements
Track Severe Weather on mobile